Allens Point, New York
Current Conditions -  °F | °C
As of 5:53 PM on Saturday 25 Oct 2014 (Local Time) from KPEO Reporting Station
Few Clouds Few Clouds  
Wind Chill: 63°   Ceiling: Unl
Heat Index: 63°   Visibility: 10mi
Dew Point: 48°   Wind: 18mph
Humidity: 58%   Direction: 260°W
Pressure: 29.59"   Gusts: 24mph
Location:  42.8228°N, 76.6558°W
Report Text: KPEO 252153Z AUTO 26016G21KT 10SM FEW041 FEW095 17/09 A2959 RMK AO2 PK WND 25027/2113 SLP019 T01720089
Loading
Personal Weather Stations






























Interactive Weather Map
Tropical Storm Tracking
New forecast layout! Learn more

10-Day Weather Forecast

Advertisements
Track Severe Weather on mobile